Time;durP1;ratioP1;P1;durP2;ratioP2;P2;SDS_P1;SDS_P2;PMS_P1;PMS_P2;Temp;Humidity;BMP_temperature;BMP_pressure;BME280_temperature;BME280_humidity;BME280_pressure;Samples;Min_cycle;Max_cycle;Signal;HPM_P1;HPM_P2
2021/11/28 00:00:05;;;;;;;6.83;5.83;;;3.30;99.90;;;;;;5037205;28;20697;-61
2021/11/28 00:02:34;;;;;;;7.80;6.57;;;3.40;99.90;;;;;;5037098;28;20366;-61
2021/11/28 00:05:02;;;;;;;12.83;9.30;;;3.40;99.90;;;;;;5036110;28;20212;-60
2021/11/28 00:07:43;;;;;;;7.47;6.23;;;3.40;99.90;;;;;;5036738;28;20218;-61
2021/11/28 00:10:15;;;;;;;8.60;6.07;;;3.40;99.90;;;;;;5036241;28;20230;-61
2021/11/28 00:12:45;;;;;;;7.43;5.77;;;3.30;99.90;;;;;;5036180;28;20261;-61
2021/11/28 00:15:15;;;;;;;7.43;6.07;;;3.40;99.90;;;;;;5036293;28;20266;-61
2021/11/28 00:17:42;;;;;;;8.17;5.80;;;3.40;99.90;;;;;;5036125;28;20217;-60
2021/11/28 00:20:12;;;;;;;6.87;5.73;;;3.40;99.90;;;;;;5036319;28;20605;-61
2021/11/28 00:22:38;;;;;;;7.43;5.77;;;3.30;99.90;;;;;;5036549;28;20272;-60
2021/11/28 00:25:07;;;;;;;7.27;5.53;;;3.40;99.90;;;;;;5035750;28;20236;-60
2021/11/28 00:27:34;;;;;;;7.70;5.97;;;3.40;99.90;;;;;;5035750;28;20206;-59
2021/11/28 00:30:01;;;;;;;6.63;5.53;;;3.40;99.90;;;;;;5035813;28;20257;-60
2021/11/28 00:32:29;;;;;;;7.07;5.80;;;3.40;99.90;;;;;;5035974;28;20233;-60
2021/11/28 00:34:56;;;;;;;8.60;5.60;;;3.40;99.90;;;;;;5035683;28;20202;-61
2021/11/28 00:37:23;;;;;;;7.20;5.20;;;3.40;99.90;;;;;;5036231;28;20213;-61
2021/11/28 00:39:49;;;;;;;7.07;5.33;;;3.50;99.90;;;;;;5035966;28;20801;-61
2021/11/28 00:42:17;;;;;;;7.20;5.27;;;3.60;99.90;;;;;;5035911;28;20210;-61
2021/11/28 00:44:43;;;;;;;7.10;5.50;;;3.60;99.90;;;;;;5035795;28;20217;-61
2021/11/28 00:47:11;;;;;;;6.57;4.83;;;3.60;99.90;;;;;;5035434;28;20690;-59
2021/11/28 00:49:49;;;;;;;7.83;5.57;;;3.50;99.90;;;;;;5036172;28;20604;-60
2021/11/28 00:52:16;;;;;;;7.00;4.60;;;3.40;99.90;;;;;;5036027;28;20293;-61
2021/11/28 00:54:42;;;;;;;6.13;4.67;;;3.30;99.90;;;;;;5035412;28;20202;-61
2021/11/28 00:57:09;;;;;;;6.60;4.80;;;3.20;99.90;;;;;;5036108;28;20202;-61
2021/11/28 00:59:36;;;;;;;5.30;4.10;;;3.10;99.90;;;;;;5036397;28;20209;-60
2021/11/28 01:02:03;;;;;;;6.13;4.73;;;3.10;99.90;;;;;;5035342;28;20209;-61
2021/11/28 01:04:30;;;;;;;7.27;5.10;;;3.10;99.90;;;;;;5035410;28;20302;-62
2021/11/28 01:06:58;;;;;;;6.13;4.37;;;3.10;99.90;;;;;;5036006;28;20210;-59
2021/11/28 01:09:24;;;;;;;6.10;4.47;;;3.10;99.90;;;;;;5035139;28;20214;-60
2021/11/28 01:11:51;;;;;;;7.40;4.40;;;3.10;99.90;;;;;;5035528;28;20772;-61
2021/11/28 01:14:18;;;;;;;6.67;4.60;;;3.20;99.90;;;;;;5035294;28;20245;-61
2021/11/28 01:16:44;;;;;;;6.53;4.10;;;3.30;99.90;;;;;;5035265;28;20217;-62
2021/11/28 01:19:11;;;;;;;5.57;4.47;;;3.40;99.90;;;;;;5035133;28;20637;-60
2021/11/28 01:21:48;;;;;;;6.37;4.40;;;3.50;99.90;;;;;;5035255;28;20623;-61
2021/11/28 01:24:16;;;;;;;6.67;4.63;;;3.60;99.90;;;;;;5035072;28;20745;-61
2021/11/28 01:26:43;;;;;;;4.97;3.90;;;3.60;99.90;;;;;;5034884;28;20679;-61
2021/11/28 01:29:09;;;;;;;6.83;4.17;;;3.70;99.90;;;;;;5035206;28;20202;-61
2021/11/28 01:31:36;;;;;;;6.13;4.47;;;3.80;99.90;;;;;;5035498;28;20222;-61
2021/11/28 01:34:03;;;;;;;4.97;4.13;;;3.80;99.90;;;;;;5034523;28;20230;-61
2021/11/28 01:36:30;;;;;;;5.27;4.20;;;3.90;99.90;;;;;;5034461;28;20210;-61
2021/11/28 01:38:56;;;;;;;4.77;3.90;;;3.90;99.90;;;;;;5034978;28;20213;-61
2021/11/28 01:41:24;;;;;;;5.13;4.00;;;3.80;99.90;;;;;;5034902;28;20470;-61
2021/11/28 01:43:52;;;;;;;6.03;4.10;;;3.70;99.90;;;;;;5034469;28;20260;-60
2021/11/28 01:46:19;;;;;;;5.57;4.33;;;3.70;99.90;;;;;;5034658;28;20787;-62
2021/11/28 01:48:47;;;;;;;5.87;4.30;;;3.80;99.90;;;;;;5034797;28;20214;-61
2021/11/28 01:51:13;;;;;;;5.53;4.13;;;3.90;99.90;;;;;;5034427;28;20219;-61
2021/11/28 01:53:40;;;;;;;6.57;4.40;;;4.00;99.90;;;;;;5034423;28;20226;-60
2021/11/28 01:56:07;;;;;;;4.43;3.90;;;4.00;99.90;;;;;;5034620;28;20237;-61
2021/11/28 01:58:35;;;;;;;6.50;4.10;;;4.10;99.90;;;;;;5034775;28;20219;-60
2021/11/28 02:01:08;;;;;;;4.77;3.70;;;4.20;99.90;;;;;;5034123;28;20209;-61
2021/11/28 02:03:37;;;;;;;5.33;3.60;;;4.30;99.90;;;;;;5033807;28;20642;-60
2021/11/28 02:06:05;;;;;;;5.20;3.90;;;4.40;99.90;;;;;;5034918;28;20222;-61
2021/11/28 02:08:32;;;;;;;5.70;3.93;;;4.50;99.90;;;;;;5034412;28;20214;-61
2021/11/28 02:10:58;;;;;;;5.43;3.83;;;4.50;99.90;;;;;;5034187;28;20226;-61
2021/11/28 02:13:26;;;;;;;5.37;3.67;;;4.60;99.90;;;;;;5033614;28;20234;-62
2021/11/28 02:15:54;;;;;;;5.77;4.23;;;4.70;99.90;;;;;;5033903;28;20217;-61
2021/11/28 02:18:23;;;;;;;5.37;4.17;;;4.70;99.90;;;;;;5033999;28;20206;-61
2021/11/28 02:20:53;;;;;;;5.70;4.00;;;4.80;99.90;;;;;;5033699;28;20198;-61
2021/11/28 02:23:20;;;;;;;5.70;3.80;;;4.80;99.90;;;;;;5034232;28;20233;-61
2021/11/28 02:25:48;;;;;;;5.07;3.63;;;4.80;99.90;;;;;;5034600;28;20229;-60
2021/11/28 02:28:15;;;;;;;3.97;2.67;;;4.80;99.90;;;;;;5033923;28;20202;-61
2021/11/28 02:30:42;;;;;;;2.97;2.50;;;4.80;99.90;;;;;;5033773;28;20234;-62
2021/11/28 02:33:08;;;;;;;4.57;3.00;;;4.80;99.90;;;;;;5033829;28;20230;-60
2021/11/28 02:35:35;;;;;;;3.20;2.33;;;4.80;99.90;;;;;;5034352;28;20206;-61
2021/11/28 02:38:05;;;;;;;2.50;2.10;;;4.80;99.90;;;;;;5033942;28;20705;-61
2021/11/28 02:40:33;;;;;;;5.10;3.00;;;4.80;99.90;;;;;;5033698;28;20707;-60
2021/11/28 02:42:59;;;;;;;4.93;2.23;;;4.80;99.90;;;;;;5033160;28;20226;-61
2021/11/28 02:45:29;;;;;;;5.40;2.77;;;4.80;99.90;;;;;;5033555;28;20209;-62
2021/11/28 02:47:58;;;;;;;5.03;2.20;;;4.70;99.90;;;;;;5033978;28;20210;-61
2021/11/28 02:50:25;;;;;;;4.03;2.40;;;4.70;99.90;;;;;;5033895;28;20226;-61
2021/11/28 02:52:55;;;;;;;2.67;2.03;;;4.80;99.90;;;;;;5033321;28;20226;-61
2021/11/28 02:55:26;;;;;;;3.93;2.03;;;4.80;99.90;;;;;;5033498;28;20213;-61
2021/11/28 02:57:53;;;;;;;3.37;1.80;;;4.80;99.90;;;;;;5033082;28;20221;-61
2021/11/28 03:00:21;;;;;;;3.87;2.30;;;4.70;99.90;;;;;;5033748;28;20252;-61
2021/11/28 03:02:48;;;;;;;2.90;2.10;;;4.80;99.90;;;;;;5033971;28;20230;-61
2021/11/28 03:05:15;;;;;;;4.03;1.90;;;4.90;99.90;;;;;;5034058;28;20213;-61
2021/11/28 03:07:42;;;;;;;4.63;2.57;;;5.00;99.90;;;;;;5034026;28;20210;-61
2021/11/28 03:10:31;;;;;;;4.63;2.20;;;5.00;99.90;;;;;;5034215;28;20210;-61
2021/11/28 03:12:58;;;;;;;5.57;2.47;;;5.10;99.90;;;;;;5034525;28;20238;-61
2021/11/28 03:15:26;;;;;;;4.30;2.23;;;5.10;99.90;;;;;;5034151;28;20217;-61
2021/11/28 03:17:52;;;;;;;4.77;3.23;;;5.20;99.90;;;;;;5033557;28;20634;-65
2021/11/28 03:20:20;;;;;;;4.57;3.30;;;5.20;99.90;;;;;;5033600;28;20233;-61
2021/11/28 03:22:47;;;;;;;4.53;3.57;;;5.30;99.90;;;;;;5033210;28;20233;-60
2021/11/28 03:25:16;;;;;;;4.83;3.97;;;5.20;99.90;;;;;;5033403;28;20210;-62
2021/11/28 03:27:44;;;;;;;5.57;4.00;;;5.10;99.90;;;;;;5033248;28;20241;-61
2021/11/28 03:30:11;;;;;;;5.70;4.23;;;5.00;99.90;;;;;;5032919;28;20617;-61
2021/11/28 03:32:38;;;;;;;7.47;4.20;;;4.80;99.90;;;;;;5035204;28;20226;-61
2021/11/28 03:35:06;;;;;;;6.00;3.80;;;4.80;99.90;;;;;;5036559;28;20206;-62
2021/11/28 03:37:33;;;;;;;4.70;4.03;;;4.80;99.90;;;;;;5037301;28;20206;-61
2021/11/28 03:40:01;;;;;;;6.07;4.03;;;4.90;99.90;;;;;;5037629;28;20205;-61
2021/11/28 03:42:28;;;;;;;7.50;4.30;;;4.90;99.90;;;;;;5037550;28;20222;-61
2021/11/28 03:44:56;;;;;;;5.40;4.00;;;4.80;99.90;;;;;;5036820;28;20206;-61
2021/11/28 03:47:23;;;;;;;7.10;4.40;;;4.80;99.90;;;;;;5036548;28;20218;-61
2021/11/28 03:49:50;;;;;;;6.43;4.43;;;4.70;99.90;;;;;;5036746;28;20205;-60
2021/11/28 03:52:17;;;;;;;5.37;3.57;;;4.50;99.90;;;;;;5037154;28;20222;-59
2021/11/28 03:54:43;;;;;;;4.80;3.77;;;4.40;99.90;;;;;;5036975;28;20207;-61
2021/11/28 03:57:10;;;;;;;4.37;3.53;;;4.30;99.90;;;;;;5037257;28;20202;-61
2021/11/28 03:59:37;;;;;;;5.97;3.40;;;4.10;99.90;;;;;;5037230;28;20206;-61
2021/11/28 04:02:05;;;;;;;6.80;3.73;;;4.10;99.90;;;;;;5037989;28;20206;-60
2021/11/28 04:04:33;;;;;;;4.87;3.60;;;4.10;99.90;;;;;;5037259;28;20206;-61
2021/11/28 04:06:59;;;;;;;5.23;3.80;;;4.10;99.90;;;;;;5037292;28;20236;-61
2021/11/28 04:09:26;;;;;;;5.30;3.50;;;4.20;99.90;;;;;;5036726;28;20206;-62
2021/11/28 04:11:53;;;;;;;4.87;3.10;;;4.30;99.90;;;;;;5036195;28;20229;-61
2021/11/28 04:14:20;;;;;;;3.60;3.17;;;4.30;99.90;;;;;;5035642;28;20741;-61
2021/11/28 04:16:47;;;;;;;8.30;3.70;;;4.50;99.90;;;;;;5036110;28;20241;-61
2021/11/28 04:19:15;;;;;;;5.73;3.70;;;4.60;99.90;;;;;;5036813;28;20214;-61
2021/11/28 04:21:44;;;;;;;5.00;3.30;;;4.70;99.90;;;;;;5036776;28;20203;-61
2021/11/28 04:24:11;;;;;;;7.07;5.20;;;4.70;99.90;;;;;;5036698;28;20333;-61
2021/11/28 04:26:39;;;;;;;4.10;3.20;;;4.80;99.90;;;;;;5036878;28;20217;-61
2021/11/28 04:29:05;;;;;;;6.93;3.40;;;4.90;99.90;;;;;;5037360;28;20206;-60
2021/11/28 04:31:32;;;;;;;4.67;3.37;;;4.90;99.90;;;;;;5037681;28;20649;-61
2021/11/28 04:33:59;;;;;;;8.00;4.47;;;4.90;99.90;;;;;;5036040;28;20226;-61
2021/11/28 04:36:27;;;;;;;7.67;3.70;;;4.90;99.90;;;;;;5036409;28;20206;-61
2021/11/28 04:38:54;;;;;;;8.13;5.07;;;4.90;99.90;;;;;;5035584;28;20305;-61
2021/11/28 04:41:20;;;;;;;16.60;10.53;;;4.80;99.90;;;;;;5035144;28;20207;-61
2021/11/28 04:43:47;;;;;;;4.57;3.20;;;4.80;99.90;;;;;;5034692;28;20233;-61
2021/11/28 04:46:14;;;;;;;5.43;3.57;;;4.80;99.90;;;;;;5035396;28;20206;-60
2021/11/28 04:48:40;;;;;;;7.23;4.43;;;4.70;99.90;;;;;;5035882;28;20202;-61
2021/11/28 04:51:07;;;;;;;5.43;4.30;;;4.70;99.90;;;;;;5035996;28;20229;-65
2021/11/28 04:53:35;;;;;;;7.27;4.50;;;4.70;99.90;;;;;;5035564;28;20229;-63
2021/11/28 04:56:02;;;;;;;7.03;4.10;;;4.70;99.90;;;;;;5035281;28;20261;-61
2021/11/28 04:58:29;;;;;;;5.17;3.10;;;4.60;99.90;;;;;;5035315;28;20702;-61
2021/11/28 05:00:55;;;;;;;5.37;3.50;;;4.60;99.90;;;;;;5035417;28;20210;-61
2021/11/28 05:03:22;;;;;;;5.63;3.50;;;4.50;99.90;;;;;;5035939;28;20245;-62
2021/11/28 05:05:49;;;;;;;5.23;3.40;;;4.50;99.90;;;;;;5035237;28;20214;-61
2021/11/28 05:08:15;;;;;;;4.90;3.37;;;4.50;99.90;;;;;;5035321;28;20206;-61
2021/11/28 05:10:43;;;;;;;4.43;3.27;;;4.40;99.90;;;;;;5039071;28;20210;-61
2021/11/28 05:13:10;;;;;;;4.97;3.73;;;4.40;99.90;;;;;;5039503;28;20298;-58
2021/11/28 05:15:37;;;;;;;4.87;3.30;;;4.30;99.90;;;;;;5038069;28;20211;-59
2021/11/28 05:18:04;;;;;;;4.23;2.90;;;4.30;99.90;;;;;;5037628;28;20247;-58
2021/11/28 05:20:31;;;;;;;4.93;3.43;;;4.30;99.90;;;;;;5036164;28;20717;-57
2021/11/28 05:22:57;;;;;;;4.27;3.20;;;4.40;99.90;;;;;;5035925;28;20227;-59
2021/11/28 05:25:24;;;;;;;4.23;3.10;;;4.40;99.90;;;;;;5034685;28;20260;-58
2021/11/28 05:27:52;;;;;;;3.50;3.07;;;4.40;99.90;;;;;;5034664;28;20704;-58
2021/11/28 05:30:19;;;;;;;4.33;3.30;;;4.50;99.90;;;;;;5034785;28;20209;-60
2021/11/28 05:32:46;;;;;;;4.23;3.10;;;4.50;99.90;;;;;;5034578;28;20230;-58
2021/11/28 05:35:13;;;;;;;4.17;2.60;;;4.50;99.90;;;;;;5034148;28;20213;-58
2021/11/28 05:37:39;;;;;;;5.90;3.67;;;4.50;99.90;;;;;;5034165;28;20728;-58
2021/11/28 05:40:07;;;;;;;5.13;3.10;;;4.60;99.90;;;;;;5034155;28;20206;-57
2021/11/28 05:42:34;;;;;;;6.40;3.17;;;4.70;99.90;;;;;;5034085;28;20289;-58
2021/11/28 05:45:02;;;;;;;3.77;3.20;;;4.70;99.90;;;;;;5033774;28;20740;-57
2021/11/28 05:47:29;;;;;;;5.20;3.13;;;4.80;99.90;;;;;;5034285;28;20206;-58
2021/11/28 05:49:56;;;;;;;5.63;3.53;;;4.90;99.90;;;;;;5034232;28;20217;-58
2021/11/28 05:52:22;;;;;;;5.20;3.00;;;4.90;99.90;;;;;;5033759;28;20234;-58
2021/11/28 05:54:50;;;;;;;4.97;3.77;;;5.00;99.90;;;;;;5033835;28;20213;-58
2021/11/28 05:57:17;;;;;;;5.83;3.67;;;5.00;99.90;;;;;;5033996;28;20293;-58
2021/11/28 05:59:43;;;;;;;7.83;5.27;;;5.00;99.90;;;;;;5034347;28;20604;-57
2021/11/28 06:02:11;;;;;;;5.27;4.07;;;5.00;99.90;;;;;;5034280;28;20206;-58
2021/11/28 06:04:38;;;;;;;4.40;3.20;;;5.10;99.90;;;;;;5033581;28;20210;-58
2021/11/28 06:07:05;;;;;;;4.53;3.20;;;5.00;99.90;;;;;;5033790;28;20256;-59
2021/11/28 06:09:32;;;;;;;3.37;3.00;;;5.00;99.90;;;;;;5033516;28;20694;-59
2021/11/28 06:11:59;;;;;;;4.37;3.20;;;5.00;99.90;;;;;;5033914;28;20265;-59
2021/11/28 06:14:25;;;;;;;5.37;3.40;;;4.90;99.90;;;;;;5033018;28;20238;-58
2021/11/28 06:16:52;;;;;;;6.10;3.60;;;4.90;99.90;;;;;;5033506;28;20582;-60
2021/11/28 06:19:20;;;;;;;6.30;4.83;;;4.90;99.90;;;;;;5033379;28;20206;-59
2021/11/28 06:21:47;;;;;;;8.83;6.17;;;4.80;99.90;;;;;;5033845;28;20202;-60
2021/11/28 06:24:14;;;;;;;8.67;5.60;;;4.90;99.90;;;;;;5033293;28;20222;-59
2021/11/28 06:26:40;;;;;;;18.43;10.53;;;4.90;99.90;;;;;;5033824;28;20213;-60
2021/11/28 06:29:07;;;;;;;5.27;4.17;;;4.90;99.90;;;;;;5033373;28;20700;-60
2021/11/28 06:31:34;;;;;;;7.00;3.43;;;4.80;99.90;;;;;;5033148;28;20229;-59
2021/11/28 06:34:01;;;;;;;5.73;3.70;;;4.80;99.90;;;;;;5032800;28;20230;-60
2021/11/28 06:36:29;;;;;;;4.57;3.20;;;4.90;99.90;;;;;;5032918;28;20260;-58
2021/11/28 06:38:56;;;;;;;5.80;3.83;;;4.90;99.90;;;;;;5033436;28;20697;-58
2021/11/28 06:41:26;;;;;;;7.53;4.70;;;4.90;99.90;;;;;;5033242;28;20206;-59
2021/11/28 06:43:52;;;;;;;6.63;4.93;;;4.90;99.90;;;;;;5033369;28;20229;-59
2021/11/28 06:46:19;;;;;;;4.33;3.90;;;4.90;99.90;;;;;;5033356;28;20209;-59
2021/11/28 06:48:46;;;;;;;10.23;8.60;;;4.90;99.90;;;;;;5033077;28;20205;-59
2021/11/28 06:51:13;;;;;;;5.30;3.40;;;4.90;99.90;;;;;;5032921;28;20216;-58
2021/11/28 06:53:42;;;;;;;4.60;3.40;;;4.90;99.90;;;;;;5033117;28;20226;-58
2021/11/28 06:56:09;;;;;;;4.33;3.30;;;4.80;99.90;;;;;;5033223;28;20217;-59
2021/11/28 06:58:36;;;;;;;4.47;3.20;;;4.60;99.90;;;;;;5033940;28;20210;-60
2021/11/28 07:01:04;;;;;;;5.30;3.20;;;4.40;99.90;;;;;;5035203;28;20696;-59
2021/11/28 07:03:30;;;;;;;4.67;3.20;;;4.30;99.90;;;;;;5033282;28;20265;-59
2021/11/28 07:05:57;;;;;;;6.23;3.47;;;4.30;99.90;;;;;;5033667;28;20682;-60
2021/11/28 07:08:24;;;;;;;4.40;3.30;;;4.20;99.90;;;;;;5032960;28;20210;-59
2021/11/28 07:10:53;;;;;;;4.27;2.90;;;4.10;99.90;;;;;;5033484;28;20678;-58
2021/11/28 07:13:20;;;;;;;5.03;2.60;;;4.00;99.90;;;;;;5032706;28;20234;-59
2021/11/28 07:15:47;;;;;;;3.80;2.80;;;3.80;99.90;;;;;;5032306;28;20209;-58
2021/11/28 07:18:14;;;;;;;3.87;2.80;;;3.80;99.90;;;;;;5032931;28;20677;-59
2021/11/28 07:20:41;;;;;;;4.90;2.63;;;3.80;99.90;;;;;;5033508;28;20202;-57
2021/11/28 07:23:08;;;;;;;4.97;3.17;;;3.80;99.90;;;;;;5033298;28;20223;-58
2021/11/28 07:25:35;;;;;;;3.83;2.80;;;3.80;99.90;;;;;;5033482;28;20218;-59
2021/11/28 07:28:03;;;;;;;4.93;3.00;;;3.90;99.90;;;;;;5033603;28;20202;-58
2021/11/28 07:30:31;;;;;;;4.60;3.13;;;3.90;99.90;;;;;;5033118;28;20210;-60
2021/11/28 07:32:58;;;;;;;4.33;3.30;;;3.80;99.90;;;;;;5033385;28;20728;-58
2021/11/28 07:35:25;;;;;;;5.13;3.80;;;3.80;99.90;;;;;;5032980;28;20209;-59
2021/11/28 07:37:51;;;;;;;5.40;3.13;;;3.90;99.90;;;;;;5032923;28;20213;-58
2021/11/28 07:40:18;;;;;;;5.07;3.40;;;3.90;99.90;;;;;;5033808;28;20214;-60
2021/11/28 07:42:45;;;;;;;5.23;3.10;;;4.00;99.90;;;;;;5033472;28;20737;-59
2021/11/28 07:45:13;;;;;;;4.20;3.10;;;4.00;99.90;;;;;;5033402;28;20670;-58
2021/11/28 07:47:40;;;;;;;4.50;3.43;;;4.00;99.90;;;;;;5033353;28;20221;-59
2021/11/28 07:50:09;;;;;;;6.60;4.20;;;4.00;99.90;;;;;;5033345;28;20207;-59
2021/11/28 07:52:36;;;;;;;6.13;4.20;;;4.10;99.90;;;;;;5033217;28;20242;-58
2021/11/28 07:55:03;;;;;;;5.90;4.07;;;4.20;99.90;;;;;;5033270;28;20206;-58
2021/11/28 07:57:30;;;;;;;6.57;3.40;;;4.20;99.90;;;;;;5033122;28;20217;-58
2021/11/28 07:59:56;;;;;;;4.37;3.40;;;4.20;99.90;;;;;;5032961;28;20206;-59
2021/11/28 08:02:24;;;;;;;4.73;3.17;;;4.10;99.90;;;;;;5032977;28;20300;-59
2021/11/28 08:04:51;;;;;;;5.07;3.63;;;4.10;99.90;;;;;;5033382;28;20202;-58
2021/11/28 08:07:18;;;;;;;5.43;3.30;;;4.20;99.90;;;;;;5033317;28;20209;-58
2021/11/28 08:09:45;;;;;;;6.33;4.03;;;4.30;99.90;;;;;;5034884;28;20835;-58
2021/11/28 08:12:12;;;;;;;8.73;4.07;;;4.30;99.90;;;;;;5033592;28;20296;-59
2021/11/28 08:14:39;;;;;;;12.40;6.70;;;4.30;99.90;;;;;;5033729;28;20191;-59
2021/11/28 08:17:05;;;;;;;8.57;6.07;;;4.20;99.90;;;;;;5033982;28;20237;-61
2021/11/28 08:19:34;;;;;;;8.37;5.03;;;4.10;99.90;;;;;;5034699;28;20213;-59
2021/11/28 08:22:01;;;;;;;7.83;4.47;;;4.10;99.90;;;;;;5036921;28;20207;-60
2021/11/28 08:24:28;;;;;;;6.63;4.50;;;4.20;99.90;;;;;;5037101;28;20206;-59
2021/11/28 08:26:55;;;;;;;6.83;4.33;;;4.20;99.90;;;;;;5037331;28;20214;-58
2021/11/28 08:29:22;;;;;;;4.43;3.90;;;4.20;99.90;;;;;;5038028;28;20212;-59
2021/11/28 08:31:49;;;;;;;6.53;3.93;;;4.30;99.90;;;;;;5038273;28;20274;-59
2021/11/28 08:34:16;;;;;;;5.20;4.27;;;4.50;99.90;;;;;;5035989;28;20717;-60
2021/11/28 08:36:44;;;;;;;5.43;3.73;;;4.50;99.90;;;;;;5036263;28;20240;-59
2021/11/28 08:39:11;;;;;;;4.17;3.43;;;4.60;99.90;;;;;;5036179;28;20206;-59
2021/11/28 08:41:38;;;;;;;4.87;3.73;;;4.70;99.90;;;;;;5036022;28;20206;-58
2021/11/28 08:44:05;;;;;;;6.83;4.33;;;4.90;99.90;;;;;;5035713;28;20450;-60
2021/11/28 08:46:33;;;;;;;7.27;4.30;;;5.00;99.90;;;;;;5035692;28;20272;-60
2021/11/28 08:49:00;;;;;;;7.77;4.83;;;5.10;99.90;;;;;;5035961;28;20221;-60
2021/11/28 08:51:27;;;;;;;7.97;5.00;;;5.20;99.90;;;;;;5035778;28;20732;-59
2021/11/28 08:53:58;;;;;;;8.67;4.70;;;5.30;99.90;;;;;;5035299;28;20234;-61
2021/11/28 08:56:25;;;;;;;6.77;3.70;;;5.40;99.90;;;;;;5035123;28;20728;-60
2021/11/28 08:58:52;;;;;;;5.07;3.47;;;5.50;99.90;;;;;;5035367;28;20203;-60
2021/11/28 09:01:19;;;;;;;4.17;3.30;;;5.60;99.90;;;;;;5034774;28;20206;-60
2021/11/28 09:03:46;;;;;;;6.77;3.70;;;5.70;99.90;;;;;;5034572;28;20230;-61
2021/11/28 09:06:13;;;;;;;5.37;3.60;;;5.70;99.90;;;;;;5035032;28;20217;-62
2021/11/28 09:08:39;;;;;;;8.40;4.30;;;5.80;99.90;;;;;;5034167;28;20206;-57
2021/11/28 09:11:09;;;;;;;6.03;4.33;;;5.70;99.90;;;;;;5034154;28;20218;-56
2021/11/28 09:13:36;;;;;;;7.27;4.50;;;5.50;99.90;;;;;;5033839;28;20320;-58
2021/11/28 09:16:04;;;;;;;6.10;3.90;;;5.40;99.90;;;;;;5034203;28;20233;-58
2021/11/28 09:18:34;;;;;;;4.23;3.50;;;5.40;99.90;;;;;;5034129;28;20297;-58
2021/11/28 09:21:01;;;;;;;8.23;4.00;;;5.30;99.90;;;;;;5034187;28;20202;-56
2021/11/28 09:26:14;;;;;;;5.40;3.73;;;5.40;99.90;;;;;;5033883;28;20571;-57
2021/11/28 09:28:41;;;;;;;5.90;3.87;;;5.60;99.90;;;;;;5034016;28;20202;-60
2021/11/28 09:31:10;;;;;;;6.63;4.50;;;5.60;99.90;;;;;;5033426;28;20213;-57
2021/11/28 09:33:37;;;;;;;8.77;6.10;;;5.60;99.90;;;;;;5033553;28;20272;-59
2021/11/28 09:36:04;;;;;;;9.40;5.73;;;5.60;99.90;;;;;;5033848;28;20550;-57
2021/11/28 09:38:31;;;;;;;9.00;5.90;;;5.60;99.90;;;;;;5034087;28;20217;-57
2021/11/28 09:40:59;;;;;;;8.97;6.07;;;5.70;99.90;;;;;;5033909;28;20264;-57
2021/11/28 09:43:30;;;;;;;10.07;5.43;;;5.80;99.90;;;;;;5033592;28;20737;-57
2021/11/28 09:45:58;;;;;;;7.40;4.77;;;5.90;99.90;;;;;;5033405;28;20206;-57
2021/11/28 09:48:25;;;;;;;7.73;3.93;;;5.90;99.90;;;;;;5033970;28;20210;-57
2021/11/28 09:50:53;;;;;;;5.73;3.97;;;5.90;99.90;;;;;;5033633;28;20214;-58
2021/11/28 09:53:21;;;;;;;6.30;3.83;;;5.90;99.90;;;;;;5033356;28;20230;-57
2021/11/28 09:55:48;;;;;;;5.57;4.23;;;5.90;99.90;;;;;;5033182;28;20629;-56
2021/11/28 09:58:16;;;;;;;6.90;4.40;;;6.00;99.90;;;;;;5033254;28;20245;-57
2021/11/28 10:00:45;;;;;;;7.63;4.60;;;6.10;99.90;;;;;;5033243;28;20607;-56
2021/11/28 10:03:11;;;;;;;6.17;4.43;;;6.20;99.90;;;;;;5033266;28;20257;-58
2021/11/28 10:05:38;;;;;;;13.30;8.10;;;6.30;99.90;;;;;;5033573;28;20207;-58
2021/11/28 10:08:06;;;;;;;20.00;9.67;;;6.40;99.90;;;;;;5033358;28;20278;-57
2021/11/28 10:10:35;;;;;;;16.37;9.27;;;6.60;99.90;;;;;;5033265;28;20214;-56
2021/11/28 10:13:02;;;;;;;15.07;8.17;;;6.70;99.90;;;;;;5032830;28;20231;-57
2021/11/28 10:15:30;;;;;;;14.67;8.10;;;6.90;99.90;;;;;;5033302;28;20209;-58
2021/11/28 10:17:59;;;;;;;12.83;8.40;;;7.00;99.90;;;;;;5033037;28;20218;-58
2021/11/28 10:20:27;;;;;;;12.97;8.60;;;7.20;99.90;;;;;;5032838;28;20686;-57
2021/11/28 10:22:55;;;;;;;19.17;11.67;;;7.30;99.90;;;;;;5032756;28;20222;-59
2021/11/28 10:25:26;;;;;;;16.67;8.97;;;7.40;99.90;;;;;;5033547;28;20210;-57
2021/11/28 10:27:55;;;;;;;10.17;6.50;;;7.50;99.90;;;;;;5032964;28;20207;-58
2021/11/28 10:30:34;;;;;;;9.63;5.70;;;7.50;99.90;;;;;;5032929;28;20240;-58
2021/11/28 10:33:09;;;;;;;7.70;4.90;;;7.60;99.90;;;;;;5032699;28;20234;-58
2021/11/28 10:35:36;;;;;;;7.20;4.77;;;7.60;99.90;;;;;;5032668;28;20296;-59
2021/11/28 10:38:11;;;;;;;7.10;5.63;;;7.70;99.90;;;;;;5032636;28;20206;-59
2021/11/28 10:40:42;;;;;;;9.67;6.03;;;7.80;99.90;;;;;;5032958;28;20575;-59
2021/11/28 10:43:12;;;;;;;8.27;6.00;;;7.90;99.90;;;;;;5031942;28;20710;-59
2021/11/28 10:45:46;;;;;;;8.43;6.27;;;8.10;99.90;;;;;;5032285;28;20210;-58
2021/11/28 10:48:21;;;;;;;9.10;4.83;;;8.20;99.90;;;;;;5032703;28;20209;-58
2021/11/28 10:50:48;;;;;;;9.17;5.63;;;8.20;99.90;;;;;;5032485;28;20205;-57
2021/11/28 10:53:19;;;;;;;10.23;6.87;;;8.20;99.90;;;;;;5032491;28;20317;-58
2021/11/28 10:55:49;;;;;;;7.23;5.57;;;8.20;99.90;;;;;;5032302;28;20202;-58
2021/11/28 10:58:19;;;;;;;8.63;5.23;;;8.10;99.90;;;;;;5032587;28;20240;-58
2021/11/28 11:01:06;;;;;;;15.57;9.47;;;8.10;99.90;;;;;;5032470;28;20209;-58
2021/11/28 11:03:36;;;;;;;8.30;6.00;;;8.00;99.90;;;;;;5032162;28;20233;-58
2021/11/28 11:06:24;;;;;;;6.73;4.70;;;7.90;99.90;;;;;;5032341;28;20210;-58
2021/11/28 11:08:55;;;;;;;8.20;6.30;;;7.90;99.90;;;;;;5026734;28;20678;-58
2021/11/28 11:11:24;;;;;;;8.30;6.50;;;7.80;99.90;;;;;;5032309;28;20206;-59
2021/11/28 11:13:56;;;;;;;10.80;8.03;;;7.70;99.90;;;;;;5032252;28;20602;-58
2021/11/28 11:16:34;;;;;;;6.97;5.37;;;7.70;99.90;;;;;;5032085;28;20613;-58
2021/11/28 11:19:28;;;;;;;7.23;5.00;;;7.60;99.90;;;;;;5032076;28;20206;-58
2021/11/28 11:22:03;;;;;;;5.97;4.53;;;7.70;99.90;;;;;;5032192;28;20214;-57
2021/11/28 11:24:30;;;;;;;9.17;5.63;;;7.70;99.90;;;;;;5032207;28;20202;-58
2021/11/28 11:27:06;;;;;;;7.40;6.20;;;7.70;99.90;;;;;;5032062;28;20205;-57
2021/11/28 11:29:32;;;;;;;8.67;6.23;;;7.70;99.90;;;;;;5032020;28;20217;-58
2021/11/28 11:32:02;;;;;;;8.00;5.37;;;7.80;99.90;;;;;;5031803;28;20217;-57
2021/11/28 11:34:31;;;;;;;7.63;4.60;;;7.80;99.90;;;;;;5031566;28;20661;-57
2021/11/28 11:37:01;;;;;;;6.73;4.53;;;7.70;99.90;;;;;;5031901;28;20206;-57
2021/11/28 11:39:29;;;;;;;7.23;5.20;;;7.40;99.90;;;;;;5031876;28;20309;-57
2021/11/28 11:41:56;;;;;;;9.30;6.63;;;7.40;99.90;;;;;;5031756;28;20205;-57
2021/11/28 11:44:25;;;;;;;10.00;7.03;;;7.60;99.90;;;;;;5031761;28;20222;-57
2021/11/28 11:46:53;;;;;;;6.20;4.57;;;7.70;99.90;;;;;;5031361;28;20213;-57
2021/11/28 11:49:20;;;;;;;6.37;5.30;;;7.90;99.90;;;;;;5031936;28;20217;-59
2021/11/28 11:51:49;;;;;;;6.67;4.90;;;8.00;99.90;;;;;;5031845;28;20210;-59
2021/11/28 11:54:21;;;;;;;5.70;4.57;;;8.00;99.90;;;;;;5034569;28;20227;-57
2021/11/28 11:56:55;;;;;;;7.43;4.70;;;8.10;99.90;;;;;;5035883;28;20249;-56
2021/11/28 11:59:27;;;;;;;7.73;4.97;;;8.10;99.90;;;;;;5035630;28;20255;-58
2021/11/28 12:02:02;;;;;;;5.13;4.40;;;8.10;99.90;;;;;;5036173;28;20214;-59
2021/11/28 12:04:39;;;;;;;6.70;4.97;;;8.10;99.90;;;;;;5035463;28;20304;-59
2021/11/28 12:07:08;;;;;;;6.57;4.87;;;8.10;99.90;;;;;;5035564;28;20209;-58
2021/11/28 12:09:36;;;;;;;5.50;4.40;;;8.20;99.90;;;;;;5035852;28;20217;-59
2021/11/28 12:12:05;;;;;;;11.13;5.10;;;8.10;99.90;;;;;;5035952;28;20202;-59
2021/11/28 12:14:32;;;;;;;7.87;5.03;;;7.90;99.90;;;;;;5035293;28;20237;-57
2021/11/28 12:16:59;;;;;;;8.50;5.27;;;8.00;99.90;;;;;;5035711;28;20210;-58
2021/11/28 12:19:40;;;;;;;7.67;4.53;;;8.00;99.90;;;;;;5035446;28;20245;-58
2021/11/28 12:22:48;;;;;;;7.63;5.50;;;7.90;99.90;;;;;;5035290;28;20675;-59
2021/11/28 12:25:38;;;;;;;4.20;3.23;;;7.90;99.90;;;;;;5035117;28;20573;-59
2021/11/28 12:28:26;;;;;;;5.80;3.43;;;8.00;99.90;;;;;;5035116;28;20263;-58
2021/11/28 12:30:54;;;;;;;16.63;10.27;;;8.10;99.90;;;;;;5034937;28;20203;-59
2021/11/28 12:33:41;;;;;;;13.43;8.63;;;8.10;99.90;;;;;;5034996;28;20233;-59
2021/11/28 12:36:08;;;;;;;6.13;4.20;;;8.10;99.90;;;;;;5034624;28;20202;-59
2021/11/28 12:38:50;;;;;;;6.97;4.07;;;8.10;99.90;;;;;;5034938;28;20325;-58
2021/11/28 12:41:16;;;;;;;5.93;3.83;;;8.00;99.90;;;;;;5034986;28;20584;-58
2021/11/28 12:44:07;;;;;;;6.40;3.97;;;7.90;99.90;;;;;;5034710;28;20222;-58
2021/11/28 12:46:41;;;;;;;6.70;4.30;;;7.90;99.90;;;;;;5034555;28;20678;-58
2021/11/28 12:49:26;;;;;;;5.83;4.10;;;7.90;99.90;;;;;;5034539;28;20489;-59
2021/11/28 12:51:54;;;;;;;6.67;4.30;;;7.90;99.90;;;;;;5034945;28;20206;-57
2021/11/28 12:54:26;;;;;;;5.17;3.80;;;7.90;99.90;;;;;;5034664;28;20276;-57
2021/11/28 12:57:23;;;;;;;5.70;3.90;;;7.80;99.90;;;;;;5035009;28;20202;-57
2021/11/28 13:00:17;;;;;;;7.00;4.83;;;7.20;99.90;;;;;;5034940;28;20202;-57
2021/11/28 13:02:47;;;;;;;8.43;6.40;;;7.10;99.90;;;;;;5035286;28;20230;-57
2021/11/28 13:05:35;;;;;;;7.03;5.63;;;7.20;99.90;;;;;;5034109;28;20198;-58